Time;durP1;ratioP1;P1;durP2;ratioP2;P2;SDS_P1;SDS_P2;PMS_P1;PMS_P2;Temp;Humidity;BMP_temperature;BMP_pressure;BME280_temperature;BME280_humidity;BME280_pressure;Samples;Min_cycle;Max_cycle;Signal;HPM_P1;HPM_P2
2021/05/24 00:00:24;;;;;;;8.63;4.62;;;;;;;16.60;46.38;99410.75;1775539;79;21049;-72
2021/05/24 00:02:50;;;;;;;8.23;4.97;;;;;;;16.59;46.67;99417.11;1766081;79;21586;-72
2021/05/24 00:05:21;;;;;;;6.12;3.95;;;;;;;16.57;47.03;99419.08;1771022;79;21638;-72
2021/05/24 00:07:47;;;;;;;7.65;3.80;;;;;;;16.50;46.09;99421.54;1783183;80;21026;-72
2021/05/24 00:10:25;;;;;;;5.45;3.08;;;;;;;16.45;45.84;99429.99;1792553;79;21029;-72
2021/05/24 00:12:53;;;;;;;6.33;3.95;;;;;;;16.41;45.47;99433.97;1792520;79;21085;-72
2021/05/24 00:15:24;;;;;;;6.90;3.72;;;;;;;16.34;45.53;99451.09;1795932;78;21082;-72
2021/05/24 00:17:51;;;;;;;6.28;4.17;;;;;;;16.30;45.78;99452.37;1797528;78;21076;-72
2021/05/24 00:20:23;;;;;;;7.60;4.70;;;;;;;16.24;46.31;99457.00;1820678;78;21050;-72
2021/05/24 00:22:51;;;;;;;7.12;4.33;;;;;;;16.16;46.64;99462.24;1784061;79;21093;-72
2021/05/24 00:25:19;;;;;;;7.03;4.25;;;;;;;16.10;47.20;99455.70;1796954;78;21061;-72
2021/05/24 00:27:49;;;;;;;6.87;4.47;;;;;;;16.05;47.62;99465.98;1795649;79;21038;-72
2021/05/24 00:30:18;;;;;;;9.95;4.40;;;;;;;16.00;48.01;99472.26;1763363;80;21078;-72
2021/05/24 00:32:44;;;;;;;8.28;4.80;;;;;;;15.98;48.68;99474.22;1763021;81;21001;-72
2021/05/24 00:35:12;;;;;;;9.08;4.42;;;;;;;15.92;49.10;99481.48;1792865;78;21059;-72
2021/05/24 00:37:40;;;;;;;10.25;4.83;;;;;;;15.93;49.82;99484.50;1771475;79;21588;-72
2021/05/24 00:40:08;;;;;;;6.37;4.78;;;;;;;15.90;50.68;99484.30;1771245;80;21017;-72
2021/05/24 00:42:34;;;;;;;8.70;4.60;;;;;;;15.86;51.08;99494.42;1776115;80;21405;-72
2021/05/24 00:45:04;;;;;;;8.38;4.85;;;;;;;15.82;51.86;99502.38;1788464;79;21591;-72
2021/05/24 00:47:32;;;;;;;8.65;5.45;;;;;;;15.79;52.73;99511.95;1778544;79;21044;-72
2021/05/24 00:49:58;;;;;;;7.87;5.20;;;;;;;15.71;53.26;99519.36;1790227;79;21559;-72
2021/05/24 00:52:25;;;;;;;11.65;6.30;;;;;;;15.69;54.29;99525.35;1764272;81;21049;-72
2021/05/24 00:54:52;;;;;;;9.08;5.85;;;;;;;15.67;55.51;99523.82;1771647;79;21057;-73
2021/05/24 00:57:19;;;;;;;10.32;6.45;;;;;;;15.62;56.45;99535.41;1752700;81;21602;-72
2021/05/24 00:59:45;;;;;;;8.33;5.25;;;;;;;15.55;57.32;99540.49;1739586;79;21013;-73
2021/05/24 01:02:13;;;;;;;7.85;5.20;;;;;;;15.56;58.11;99540.34;1777414;79;21056;-72
2021/05/24 01:04:40;;;;;;;11.15;4.90;;;;;;;15.64;58.55;99533.42;1763230;80;21093;-73
2021/05/24 01:07:06;;;;;;;8.08;5.03;;;;;;;15.56;59.21;99533.68;1772040;79;21037;-73
2021/05/24 01:09:34;;;;;;;7.25;4.70;;;;;;;15.47;59.87;99532.37;1764919;81;21061;-73
2021/05/24 01:12:01;;;;;;;6.00;4.75;;;;;;;15.40;60.70;99534.78;1768809;79;21064;-73
2021/05/24 01:14:27;;;;;;;7.55;4.60;;;;;;;15.35;61.40;99544.53;1767203;80;21053;-73
2021/05/24 01:16:55;;;;;;;7.50;4.40;;;;;;;15.41;61.65;99543.13;1776398;80;21052;-72
2021/05/24 01:19:23;;;;;;;7.53;4.33;;;;;;;15.38;62.07;99538.06;1798087;79;21077;-72
2021/05/24 01:21:50;;;;;;;6.80;4.72;;;;;;;15.27;62.66;99534.23;1762050;80;21018;-73
2021/05/24 01:24:20;;;;;;;6.75;4.60;;;;;;;15.22;63.04;99538.17;1756984;80;21054;-74
2021/05/24 01:26:47;;;;;;;5.62;4.37;;;;;;;15.19;63.59;99541.14;1763780;80;21086;-73
2021/05/24 01:29:21;;;;;;;6.37;4.17;;;;;;;15.18;63.94;99538.13;1792028;79;21565;-73
2021/05/24 01:31:48;;;;;;;5.80;3.60;;;;;;;15.30;63.87;99540.62;1779006;79;21029;-73
2021/05/24 01:34:16;;;;;;;8.15;4.08;;;;;;;15.34;64.11;99544.17;1770511;79;21141;-72
2021/05/24 01:36:42;;;;;;;5.58;4.45;;;;;;;15.27;64.48;99547.08;1760265;80;21055;-73
2021/05/24 01:39:09;;;;;;;6.05;4.15;;;;;;;15.18;64.71;99550.58;1767008;81;21104;-73
2021/05/24 01:41:35;;;;;;;6.65;4.25;;;;;;;15.16;64.76;99558.72;1756533;79;21089;-73
2021/05/24 01:44:02;;;;;;;6.67;3.95;;;;;;;15.14;65.22;99551.37;1767556;79;21522;-72
2021/05/24 01:46:28;;;;;;;5.05;3.90;;;;;;;15.21;65.52;99555.13;1769001;79;21645;-73
2021/05/24 01:48:55;;;;;;;4.60;3.98;;;;;;;15.14;65.93;99555.38;1788166;79;21049;-73
2021/05/24 01:51:21;;;;;;;6.05;4.47;;;;;;;14.99;66.18;99561.62;1780591;80;21058;-73
2021/05/24 01:53:48;;;;;;;6.33;3.92;;;;;;;14.88;66.59;99558.59;1745957;81;21024;-73
2021/05/24 01:56:14;;;;;;;9.85;4.50;;;;;;;14.74;66.85;99558.55;1768873;79;21068;-72
2021/05/24 01:58:40;;;;;;;7.10;4.40;;;;;;;14.67;67.14;99561.91;1768117;79;21690;-73
2021/05/24 02:01:09;;;;;;;6.75;4.40;;;;;;;14.69;67.46;99556.80;1724292;80;21768;-73
2021/05/24 02:03:36;;;;;;;6.62;4.45;;;;;;;14.67;67.72;99557.91;1768061;79;21065;-73
2021/05/24 02:06:03;;;;;;;6.00;4.62;;;;;;;14.58;68.38;99563.05;1784948;79;21037;-72
2021/05/24 02:08:32;;;;;;;7.60;4.90;;;;;;;14.55;68.62;99567.80;1771039;79;21124;-72
2021/05/24 02:11:02;;;;;;;7.65;5.00;;;;;;;14.52;69.00;99566.25;1776888;79;21088;-73
2021/05/24 02:13:28;;;;;;;7.75;4.58;;;;;;;14.57;69.16;99562.69;1784112;80;21057;-73
2021/05/24 02:15:56;;;;;;;8.45;5.03;;;;;;;14.73;68.91;99565.31;1747662;80;21093;-73
2021/05/24 02:18:23;;;;;;;7.12;4.72;;;;;;;14.75;68.84;99566.03;1752134;81;21104;-72
2021/05/24 02:20:49;;;;;;;9.13;4.75;;;;;;;14.70;68.86;99568.27;1755440;80;21089;-73
2021/05/24 02:23:16;;;;;;;9.55;5.20;;;;;;;14.64;69.18;99567.02;1769857;79;21041;-72
2021/05/24 02:25:43;;;;;;;4.95;4.17;;;;;;;14.60;69.55;99572.21;1779808;79;21100;-73
2021/05/24 02:28:10;;;;;;;6.15;4.20;;;;;;;14.62;69.65;99573.43;1765673;79;21605;-73
2021/05/24 02:30:38;;;;;;;8.03;4.80;;;;;;;14.71;69.32;99573.95;1762743;79;21634;-73
2021/05/24 02:33:05;;;;;;;7.30;5.25;;;;;;;14.72;69.21;99571.14;1775124;80;21591;-73
2021/05/24 02:35:32;;;;;;;8.20;5.35;;;;;;;14.69;69.42;99573.23;1762927;80;21113;-73
2021/05/24 02:37:58;;;;;;;6.85;4.25;;;;;;;14.66;69.79;99575.69;1758458;81;21066;-73
2021/05/24 02:40:25;;;;;;;5.20;4.60;;;;;;;14.74;69.64;99582.51;1756303;81;21086;-73
2021/05/24 02:42:51;;;;;;;8.20;4.80;;;;;;;14.77;69.50;99577.86;1764122;79;21058;-73
2021/05/24 02:45:19;;;;;;;6.85;4.53;;;;;;;14.69;69.68;99580.75;1779066;79;21096;-72
2021/05/24 02:47:46;;;;;;;8.50;4.70;;;;;;;14.63;70.04;99589.72;1794885;79;21073;-73
2021/05/24 02:50:19;;;;;;;7.33;5.00;;;;;;;14.61;70.24;99582.39;1785385;79;21048;-73
2021/05/24 02:52:45;;;;;;;8.28;4.95;;;;;;;14.70;70.22;99585.06;1751642;81;21057;-73
2021/05/24 02:55:12;;;;;;;6.85;5.08;;;;;;;14.67;70.60;99587.19;1761231;80;21073;-73
2021/05/24 02:57:38;;;;;;;6.92;4.62;;;;;;;14.61;70.63;99586.38;1768376;79;21056;-73
2021/05/24 03:00:07;;;;;;;4.05;3.35;;;;;;;14.55;70.59;99587.28;1789096;79;21078;-72
2021/05/24 03:02:34;;;;;;;5.25;3.60;;;;;;;14.55;70.35;99589.94;1756856;79;21044;-72
2021/05/24 03:05:01;;;;;;;4.90;3.08;;;;;;;14.54;70.24;99596.23;1766284;80;21064;-73
2021/05/24 03:07:28;;;;;;;4.08;2.90;;;;;;;14.42;70.53;99593.33;1782981;79;21645;-72
2021/05/24 03:09:54;;;;;;;5.62;3.10;;;;;;;14.30;70.78;99595.77;1783102;79;21025;-73
2021/05/24 03:12:21;;;;;;;6.35;2.87;;;;;;;14.28;70.92;99594.55;1763175;80;21113;-73
2021/05/24 03:14:48;;;;;;;4.58;3.40;;;;;;;14.26;71.04;99593.36;1771003;79;21049;-72
2021/05/24 03:17:15;;;;;;;4.08;3.00;;;;;;;14.13;71.25;99594.58;1757371;79;21058;-73
2021/05/24 03:19:42;;;;;;;4.30;2.77;;;;;;;14.01;71.51;99596.50;1763578;80;21041;-73
2021/05/24 03:22:09;;;;;;;5.12;2.98;;;;;;;14.03;71.61;99589.24;1760995;79;21021;-73
2021/05/24 03:24:38;;;;;;;4.15;3.00;;;;;;;13.96;71.86;99590.24;1779021;80;21053;-73
2021/05/24 03:27:06;;;;;;;5.25;2.65;;;;;;;13.74;72.18;99575.33;1771692;79;21121;-73
2021/05/24 03:29:32;;;;;;;4.90;3.00;;;;;;;13.74;72.53;99580.14;1748558;80;21092;-72
2021/05/24 03:31:58;;;;;;;4.25;3.02;;;;;;;13.75;72.56;99577.84;1754672;80;21053;-73
2021/05/24 03:34:25;;;;;;;5.17;3.20;;;;;;;13.37;72.89;99538.64;1765222;80;21078;-74
2021/05/24 03:36:52;;;;;;;7.37;3.60;;;;;;;13.57;73.33;99586.09;1774538;79;21572;-74
2021/05/24 03:39:20;;;;;;;7.45;3.92;;;;;;;13.62;73.60;99590.52;1785884;79;21955;-74
2021/05/24 03:41:46;;;;;;;5.00;3.75;;;;;;;13.54;74.04;99588.52;1777083;79;21022;-74
2021/05/24 03:44:14;;;;;;;6.40;3.98;;;;;;;13.53;74.93;99603.24;1780430;79;21061;-74
2021/05/24 03:46:41;;;;;;;5.15;4.03;;;;;;;13.49;75.49;99589.87;1792216;79;21069;-74
2021/05/24 03:49:07;;;;;;;5.92;4.00;;;;;;;13.49;75.49;99589.87;1770083;80;21672;-74
2021/05/24 03:51:33;;;;;;;5.37;3.80;;;;;;;13.42;75.99;99610.31;1774418;79;21575;-74
2021/05/24 03:53:59;;;;;;;6.67;4.22;;;;;;;13.42;75.99;99610.31;1764638;81;21089;-75
2021/05/24 03:56:26;;;;;;;6.15;4.22;;;;;;;13.40;77.04;99600.78;1767277;81;21013;-75
2021/05/24 03:58:52;;;;;;;5.40;4.05;;;;;;;13.40;77.04;99600.78;1784665;79;21082;-75
2021/05/24 04:01:19;;;;;;;5.78;4.60;;;;;;;13.39;77.23;99605.27;1772707;80;21049;-75
2021/05/24 04:03:45;;;;;;;8.55;4.10;;;;;;;13.38;77.52;99605.41;1787181;79;21001;-74
2021/05/24 04:06:15;;;;;;;6.75;3.80;;;;;;;13.23;78.50;99610.98;1788662;79;21040;-75
2021/05/24 04:08:46;;;;;;;7.42;4.72;;;;;;;13.23;78.50;99610.98;1771528;79;21064;-76
2021/05/24 04:11:13;;;;;;;6.40;4.25;;;;;;;13.12;79.29;99621.69;1766626;79;21034;-75
2021/05/24 04:13:46;;;;;;;9.73;4.65;;;;;;;13.17;79.43;99606.21;1760505;80;21073;-75
2021/05/24 04:16:09;;;;;;;6.70;5.12;;;;;;;13.17;79.43;99606.21;1787442;79;21088;-75
2021/05/24 04:18:35;;;;;;;6.95;4.97;;;;;;;13.18;79.42;99613.18;1810150;78;21077;-76
2021/05/24 04:21:04;;;;;;;6.47;4.83;;;;;;;13.08;79.78;99623.75;1792417;79;21598;-76
2021/05/24 04:23:32;;;;;;;7.78;5.20;;;;;;;13.08;79.78;99623.75;1770784;80;21068;-76
2021/05/24 04:25:58;;;;;;;7.22;4.80;;;;;;;13.09;79.99;99619.27;1786118;78;20993;-76
2021/05/24 04:28:25;;;;;;;6.12;5.15;;;;;;;13.02;80.20;99626.04;1790471;78;21061;-76
2021/05/24 04:30:52;;;;;;;7.10;4.65;;;;;;;13.04;80.15;99624.11;1785801;79;21069;-76
2021/05/24 04:33:19;;;;;;;5.83;4.60;;;;;;;13.01;80.13;99627.87;1752956;80;21066;-75
2021/05/24 04:35:45;;;;;;;5.92;4.40;;;;;;;12.95;80.34;99626.58;1775703;80;21043;-74
2021/05/24 04:38:11;;;;;;;6.15;4.10;;;;;;;12.99;80.36;99623.66;1754119;80;21567;-74
2021/05/24 04:40:38;;;;;;;6.92;4.50;;;;;;;12.89;80.22;99635.03;1800500;79;21641;-74
2021/05/24 04:43:04;;;;;;;7.08;4.50;;;;;;;12.89;80.22;99635.03;1791504;79;21058;-74
2021/05/24 04:45:31;;;;;;;5.62;3.95;;;;;;;12.88;80.36;99634.67;1767592;80;21572;-74
2021/05/24 04:47:57;;;;;;;8.48;4.05;;;;;;;12.86;80.29;99636.59;1783165;80;21662;-75
2021/05/24 04:50:23;;;;;;;7.40;4.03;;;;;;;12.74;80.72;99635.80;1757612;80;21057;-74
2021/05/24 04:52:50;;;;;;;6.87;4.00;;;;;;;12.80;80.60;99646.41;1738265;80;21497;-74
2021/05/24 04:55:18;;;;;;;5.80;3.90;;;;;;;12.74;80.58;99644.25;1754259;80;21048;-75
2021/05/24 04:57:44;;;;;;;5.50;3.17;;;;;;;12.67;80.78;99647.86;1790399;78;21056;-74
2021/05/24 05:00:13;;;;;;;4.90;3.60;;;;;;;12.72;80.46;99643.52;1785515;79;21100;-75
2021/05/24 05:02:39;;;;;;;4.83;3.50;;;;;;;12.61;80.42;99654.52;1776783;79;21030;-74
2021/05/24 05:05:08;;;;;;;5.95;3.35;;;;;;;12.55;80.34;99656.33;1791975;80;21022;-74
2021/05/24 05:07:35;;;;;;;5.37;3.30;;;;;;;12.56;80.15;99661.17;1765702;80;21085;-73
2021/05/24 05:10:02;;;;;;;5.47;3.62;;;;;;;12.44;80.26;99669.14;1750265;81;21129;-73
2021/05/24 05:12:29;;;;;;;6.87;4.42;;;;;;;12.50;80.05;99668.29;1781765;79;21055;-73
2021/05/24 05:14:58;;;;;;;6.95;4.45;;;;;;;12.49;80.09;99680.69;1752486;80;21670;-73
2021/05/24 05:17:26;;;;;;;6.45;3.85;;;;;;;12.40;79.79;99672.14;1750789;80;21077;-73
2021/05/24 05:22:31;;;;;;;5.70;3.45;;;;;;;12.42;80.29;99683.48;1779576;79;22956;-74
2021/05/24 05:24:57;;;;;;;4.92;3.70;;;;;;;12.34;80.53;99687.21;1752513;82;21528;-74
2021/05/24 05:27:24;;;;;;;5.20;3.80;;;;;;;12.44;80.37;99684.19;1751282;82;21622;-75
2021/05/24 05:29:51;;;;;;;6.45;3.70;;;;;;;12.41;80.46;99689.75;1751852;81;21027;-74
2021/05/24 05:32:17;;;;;;;4.25;3.27;;;;;;;12.37;80.42;99694.45;1752507;82;21062;-74
2021/05/24 05:34:43;;;;;;;5.45;3.60;;;;;;;12.46;80.34;99696.86;1726215;82;21078;-75
2021/05/24 05:37:10;;;;;;;5.45;3.67;;;;;;;12.40;80.64;99702.15;1702045;83;21073;-74
2021/05/24 05:39:36;;;;;;;4.25;3.22;;;;;;;12.44;80.69;99702.30;1722462;83;21118;-74
2021/05/24 05:42:03;;;;;;;4.95;3.50;;;;;;;12.51;80.51;99711.93;1722557;83;21097;-75
2021/05/24 05:44:29;;;;;;;6.45;3.50;;;;;;;12.45;80.54;99716.38;1722545;83;21077;-75
2021/05/24 05:46:56;;;;;;;5.50;3.27;;;;;;;12.48;80.46;99717.48;1721372;83;21003;-75
2021/05/24 05:49:22;;;;;;;5.10;3.60;;;;;;;12.54;80.40;99718.80;1722596;83;20998;-75
2021/05/24 05:51:49;;;;;;;4.72;3.30;;;;;;;12.47;80.48;99722.42;1721499;83;21017;-75
2021/05/24 05:54:15;;;;;;;4.80;3.02;;;;;;;12.54;80.29;99731.56;1708199;83;21041;-75
2021/05/24 05:56:41;;;;;;;4.30;2.92;;;;;;;12.58;79.94;99734.36;1701345;83;21042;-74
2021/05/24 05:59:08;;;;;;;4.35;2.95;;;;;;;12.51;79.82;99735.80;1706845;83;21050;-76
2021/05/24 06:01:34;;;;;;;5.33;3.25;;;;;;;12.57;79.79;99745.94;1711203;83;21555;-76
2021/05/24 06:04:00;;;;;;;4.78;3.33;;;;;;;12.59;79.83;99745.31;1643200;87;21529;-75
2021/05/24 06:06:27;;;;;;;5.33;3.20;;;;;;;12.52;79.99;99743.27;1687239;85;21068;-74
2021/05/24 06:08:53;;;;;;;6.10;3.27;;;;;;;12.59;80.13;99748.45;1670164;85;21034;-76
2021/05/24 06:11:20;;;;;;;5.20;3.17;;;;;;;12.65;80.08;99753.75;1670702;85;21094;-74
2021/05/24 06:13:48;;;;;;;4.40;3.17;;;;;;;12.60;80.10;99750.16;1660291;84;22234;-75
2021/05/24 06:16:15;;;;;;;3.65;2.90;;;;;;;12.65;79.85;99748.44;1716311;82;21054;-75
2021/05/24 06:18:43;;;;;;;4.50;3.30;;;;;;;12.69;79.56;99756.55;1654479;85;21149;-76
2021/05/24 06:21:10;;;;;;;4.28;3.10;;;;;;;12.60;79.57;99752.31;1662977;84;21073;-74
2021/05/24 06:23:37;;;;;;;4.85;2.83;;;;;;;12.66;79.52;99766.05;1661890;84;21088;-74
2021/05/24 06:26:04;;;;;;;3.65;2.65;;;;;;;12.69;78.91;99764.50;1652811;86;21060;-73
2021/05/24 06:28:31;;;;;;;3.87;2.40;;;;;;;12.60;78.65;99758.11;1669187;84;21128;-73
2021/05/24 06:30:57;;;;;;;3.35;2.10;;;;;;;12.59;77.48;99762.55;1712587;82;21709;-73
2021/05/24 06:33:23;;;;;;;3.83;2.17;;;;;;;12.55;77.37;99769.07;1714506;82;21713;-73
2021/05/24 06:35:50;;;;;;;3.20;2.20;;;;;;;12.45;77.50;99766.78;1713105;82;21015;-73
2021/05/24 06:38:16;;;;;;;3.30;2.35;;;;;;;12.50;77.35;99769.08;1692956;84;21047;-73
2021/05/24 06:40:42;;;;;;;4.03;2.40;;;;;;;12.51;77.32;99770.78;1703701;82;21058;-73
2021/05/24 06:43:08;;;;;;;3.15;2.17;;;;;;;12.41;76.79;99779.92;1705019;82;22193;-73
2021/05/24 06:45:36;;;;;;;2.92;2.50;;;;;;;12.42;76.92;99781.62;1618397;87;21082;-73
2021/05/24 06:48:04;;;;;;;4.55;2.98;;;;;;;12.47;76.61;99788.73;1702943;82;21059;-74
2021/05/24 06:50:30;;;;;;;3.80;2.50;;;;;;;12.42;76.59;99789.08;1686106;84;21671;-74
2021/05/24 06:52:57;;;;;;;4.05;2.83;;;;;;;12.39;76.70;99789.33;1720735;80;21153;-74
2021/05/24 06:55:23;;;;;;;4.67;2.72;;;;;;;12.44;76.84;99791.61;1719634;82;21121;-74
2021/05/24 06:57:50;;;;;;;3.15;2.10;;;;;;;12.41;77.08;99797.99;1713898;83;21062;-73
2021/05/24 07:00:17;;;;;;;3.47;2.50;;;;;;;12.46;76.55;99798.98;1711631;83;21049;-75
2021/05/24 07:02:47;;;;;;;3.98;2.30;;;;;;;12.53;76.22;99816.12;1719804;83;21051;-74
2021/05/24 07:05:12;;;;;;;2.85;2.20;;;;;;;12.48;76.05;99816.95;1713332;83;21034;-73
2021/05/24 07:07:39;;;;;;;3.77;2.35;;;;;;;12.54;74.27;99820.43;1718704;83;21059;-74
2021/05/24 07:10:06;;;;;;;3.00;2.40;;;;;;;12.48;74.60;99824.91;1714733;83;21086;-74
2021/05/24 07:12:34;;;;;;;4.53;2.37;;;;;;;12.43;75.66;99821.77;1716828;83;21074;-74
2021/05/24 07:15:03;;;;;;;5.92;2.40;;;;;;;12.60;75.74;99821.78;1716488;83;21094;-74
2021/05/24 07:17:30;;;;;;;2.98;2.27;;;;;;;12.65;75.94;99829.36;1712390;83;21011;-73
2021/05/24 07:19:56;;;;;;;4.15;2.40;;;;;;;12.61;76.17;99832.27;1723504;83;21054;-74
2021/05/24 07:22:23;;;;;;;3.42;2.50;;;;;;;12.75;75.89;99835.67;1725716;83;21051;-71
2021/05/24 07:24:49;;;;;;;3.27;2.00;;;;;;;12.77;75.51;99829.74;1719113;83;21020;-73
2021/05/24 07:27:16;;;;;;;3.87;2.20;;;;;;;12.72;75.56;99843.85;1716573;83;21034;-73
2021/05/24 07:29:43;;;;;;;5.53;2.20;;;;;;;12.83;75.31;99841.70;1720164;83;21558;-72
2021/05/24 07:32:10;;;;;;;3.85;2.30;;;;;;;12.85;75.21;99837.97;1719913;83;21602;-72
2021/05/24 07:34:38;;;;;;;6.00;2.40;;;;;;;12.86;75.44;99829.02;1715013;83;21662;-72
2021/05/24 07:37:05;;;;;;;2.75;2.00;;;;;;;12.96;75.06;99829.14;1708387;83;21607;-72
2021/05/24 07:39:33;;;;;;;2.50;2.00;;;;;;;13.07;75.58;99843.73;1704527;83;21047;-73
2021/05/24 07:42:00;;;;;;;3.80;2.40;;;;;;;13.19;75.33;99828.63;1714350;83;21090;-73
2021/05/24 07:44:29;;;;;;;2.65;2.25;;;;;;;13.39;75.27;99832.87;1688262;83;21067;-72
2021/05/24 07:46:57;;;;;;;4.33;2.15;;;;;;;13.27;74.53;99818.25;1700947;83;21035;-72
2021/05/24 07:49:24;;;;;;;2.72;2.20;;;;;;;13.53;74.71;99837.91;1720306;83;21042;-74
2021/05/24 07:51:50;;;;;;;3.87;2.37;;;;;;;13.70;74.19;99837.02;1704377;82;21099;-72
2021/05/24 07:54:18;;;;;;;2.60;2.10;;;;;;;13.66;74.17;99841.73;1711372;84;21039;-71
2021/05/24 07:56:44;;;;;;;2.95;2.52;;;;;;;13.66;74.17;99841.73;1711235;83;21046;-72
2021/05/24 07:59:12;;;;;;;3.85;2.30;;;;;;;13.78;75.26;99854.48;1702589;84;21086;-72
2021/05/24 08:01:39;;;;;;;3.25;2.20;;;;;;;13.95;73.29;99849.59;1711492;84;21070;-72
2021/05/24 08:04:05;;;;;;;2.58;2.20;;;;;;;13.95;73.29;99849.59;1710303;84;21365;-73
2021/05/24 08:06:32;;;;;;;2.33;1.90;;;;;;;13.90;73.42;99865.45;1711280;84;21038;-73
2021/05/24 08:08:58;;;;;;;2.58;1.90;;;;;;;14.05;72.57;99855.84;1703979;84;21083;-73
2021/05/24 08:11:25;;;;;;;3.87;2.05;;;;;;;14.05;72.57;99855.84;1710247;83;21075;-73
2021/05/24 08:13:53;;;;;;;2.90;2.00;;;;;;;14.01;72.16;99863.22;1710187;83;21075;-73
2021/05/24 08:16:22;;;;;;;2.60;2.10;;;;;;;13.98;72.76;99858.63;1710341;83;21071;-73
2021/05/24 08:18:48;;;;;;;2.52;2.00;;;;;;;14.06;72.23;99870.33;1709951;83;21067;-73
2021/05/24 08:21:17;;;;;;;2.47;1.90;;;;;;;14.02;71.06;99862.75;1708898;83;21611;-74
2021/05/24 08:23:45;;;;;;;4.72;1.87;;;;;;;14.02;72.69;99867.57;1711130;83;21105;-74
2021/05/24 08:26:11;;;;;;;3.50;2.30;;;;;;;14.27;71.80;99862.84;1713047;83;21107;-74
2021/05/24 08:28:38;;;;;;;3.87;2.12;;;;;;;14.28;71.01;99877.02;1711705;83;21055;-74
2021/05/24 08:31:05;;;;;;;2.85;1.92;;;;;;;14.28;71.04;99869.03;1704755;84;21042;-74
2021/05/24 08:33:33;;;;;;;2.47;1.98;;;;;;;14.31;69.64;99874.08;1711695;83;21131;-74
2021/05/24 08:35:59;;;;;;;2.17;1.87;;;;;;;14.17;69.75;99873.44;1709217;83;21160;-74
2021/05/24 08:38:26;;;;;;;3.25;2.00;;;;;;;14.16;70.06;99890.36;1711903;83;21556;-74
2021/05/24 08:40:53;;;;;;;2.20;2.00;;;;;;;14.18;70.36;99901.73;1711278;84;21070;-73
2021/05/24 08:43:20;;;;;;;3.50;1.80;;;;;;;14.15;69.96;99907.28;1709827;83;21087;-74
2021/05/24 08:45:47;;;;;;;2.35;2.10;;;;;;;14.16;70.60;99908.98;1711276;84;21034;-74
2021/05/24 08:48:16;;;;;;;3.45;2.30;;;;;;;14.29;70.51;99919.94;1708104;84;21071;-73
2021/05/24 08:50:42;;;;;;;3.58;2.22;;;;;;;14.26;69.54;99923.70;1711082;84;21082;-74
2021/05/24 08:53:10;;;;;;;3.58;2.27;;;;;;;14.17;69.75;99920.45;1689362;83;21092;-72
2021/05/24 08:55:37;;;;;;;3.08;2.20;;;;;;;14.22;70.82;99924.44;1643408;85;21093;-72
2021/05/24 08:58:03;;;;;;;3.70;2.25;;;;;;;14.28;71.12;99926.22;1685358;84;21086;-72
2021/05/24 09:00:31;;;;;;;4.10;2.08;;;;;;;14.26;70.94;99927.19;1691308;84;21619;-72
2021/05/24 09:02:57;;;;;;;4.15;2.10;;;;;;;14.36;69.80;99926.41;1673835;84;21086;-72
2021/05/24 09:05:32;;;;;;;2.80;2.22;;;;;;;14.41;68.71;99926.88;1695955;84;21623;-72
2021/05/24 09:08:04;;;;;;;3.25;1.87;;;;;;;14.32;68.72;99932.97;1683711;84;21022;-72
2021/05/24 09:10:31;;;;;;;2.45;1.82;;;;;;;14.32;69.41;99932.97;1690683;84;21102;-73
2021/05/24 09:12:57;;;;;;;3.70;2.40;;;;;;;14.37;68.56;99936.09;1676467;84;21725;-72
2021/05/24 09:15:25;;;;;;;2.47;2.00;;;;;;;14.34;69.33;99941.18;1681154;84;21627;-73
2021/05/24 09:17:58;;;;;;;2.10;1.90;;;;;;;14.44;70.14;99941.27;1698611;83;21614;-72
2021/05/24 09:20:28;;;;;;;2.22;2.00;;;;;;;14.64;71.23;99941.41;1684212;84;21086;-73
2021/05/24 09:23:28;;;;;;;3.60;1.95;;;;;;;14.79;71.14;99956.10;1639274;86;21618;-73
2021/05/24 09:26:07;;;;;;;3.02;2.00;;;;;;;14.90;70.16;99954.70;1671472;86;21066;-73
2021/05/24 09:28:44;;;;;;;4.03;1.87;;;;;;;15.09;69.24;99946.48;1689170;84;21629;-72
2021/05/24 09:31:24;;;;;;;3.02;2.10;;;;;;;15.13;68.77;99947.03;1686572;84;21604;-72
2021/05/24 09:33:58;;;;;;;2.60;1.98;;;;;;;15.16;68.02;99954.28;1675536;84;21113;-73
2021/05/24 09:36:27;;;;;;;3.08;1.80;;;;;;;15.21;67.64;99954.73;1686229;84;21928;-73
2021/05/24 09:39:07;;;;;;;3.25;2.10;;;;;;;15.35;66.31;99963.36;1690184;84;21018;-73
2021/05/24 09:41:43;;;;;;;3.47;2.50;;;;;;;15.32;65.91;99957.80;1647046;86;21028;-73
2021/05/24 09:44:25;;;;;;;3.08;2.10;;;;;;;15.28;66.66;99964.86;1671794;86;21127;-72
2021/05/24 09:46:51;;;;;;;4.55;2.10;;;;;;;15.34;66.07;99957.66;1674402;84;21114;-72
2021/05/24 09:49:24;;;;;;;3.62;2.30;;;;;;;15.31;65.55;99965.44;1672240;84;21061;-73
2021/05/24 09:51:51;;;;;;;3.30;2.20;;;;;;;15.23;65.89;99975.42;1671346;86;21054;-73
2021/05/24 09:54:22;;;;;;;2.95;2.00;;;;;;;15.19;65.00;99961.16;1707983;84;21101;-73
2021/05/24 09:56:48;;;;;;;3.58;2.30;;;;;;;15.24;65.02;99966.47;1712259;83;21016;-73
2021/05/24 09:59:21;;;;;;;4.28;2.30;;;;;;;15.40;65.57;99967.80;1710074;83;21074;-72
2021/05/24 10:01:53;;;;;;;3.47;2.15;;;;;;;15.58;66.05;99959.17;1711339;84;21579;-71
2021/05/24 10:04:21;;;;;;;3.15;2.10;;;;;;;15.75;64.37;99962.50;1709053;83;21047;-73
2021/05/24 10:06:49;;;;;;;3.12;1.90;;;;;;;15.82;62.44;99964.16;1710576;83;21090;-73
2021/05/24 10:09:17;;;;;;;3.45;2.10;;;;;;;15.78;61.45;99952.91;1710773;83;21032;-74
2021/05/24 10:11:52;;;;;;;2.60;2.10;;;;;;;15.76;61.54;99964.19;1707526;83;21052;-71
2021/05/24 10:14:21;;;;;;;2.10;1.87;;;;;;;15.92;61.64;99958.85;1714791;83;21950;-72
2021/05/24 10:16:52;;;;;;;3.45;1.90;;;;;;;16.05;61.62;99943.45;1713783;83;21079;-71
2021/05/24 10:19:20;;;;;;;2.65;1.90;;;;;;;16.18;60.61;99941.84;1710683;83;21095;-71
2021/05/24 10:21:49;;;;;;;4.95;1.87;;;;;;;16.22;60.69;99950.74;1717337;83;21079;-71
2021/05/24 10:24:20;;;;;;;2.52;1.98;;;;;;;16.25;59.17;99956.29;1697303;83;21139;-71
2021/05/24 10:26:45;;;;;;;2.50;1.87;;;;;;;16.24;59.17;99955.10;1695778;84;21079;-71
2021/05/24 10:29:14;;;;;;;2.90;1.95;;;;;;;16.22;59.43;99957.41;1712707;83;21035;-73
2021/05/24 10:31:41;;;;;;;2.27;1.70;;;;;;;16.26;59.62;99955.81;1709880;84;21043;-73
2021/05/24 10:34:20;;;;;;;2.20;1.70;;;;;;;16.34;60.59;99962.62;1688862;84;21078;-72
2021/05/24 10:36:50;;;;;;;2.85;1.87;;;;;;;16.56;59.36;99952.16;1711018;83;21070;-72
2021/05/24 10:39:22;;;;;;;3.72;1.95;;;;;;;16.37;58.33;99920.48;1688533;84;21641;-72
2021/05/24 10:42:00;;;;;;;2.33;1.80;;;;;;;16.66;59.60;99955.67;1711779;84;21106;-73
2021/05/24 10:44:40;;;;;;;4.03;1.90;;;;;;;16.71;58.69;99957.89;1709088;84;21004;-73
2021/05/24 10:47:27;;;;;;;2.17;1.85;;;;;;;16.71;58.36;99967.23;1683167;85;21107;-73
2021/05/24 10:50:05;;;;;;;4.03;1.90;;;;;;;16.74;58.61;99966.97;1709700;84;21075;-73
2021/05/24 10:52:39;;;;;;;3.20;1.85;;;;;;;16.76;58.96;99958.30;1709648;84;21579;-73
2021/05/24 10:55:30;;;;;;;3.30;1.90;;;;;;;16.86;58.25;99971.66;1703711;84;21587;-72
2021/05/24 10:58:13;;;;;;;3.37;1.90;;;;;;;16.95;57.13;99965.47;1710037;83;21043;-72
2021/05/24 11:01:01;;;;;;;3.02;2.00;;;;;;;16.97;57.41;99967.52;1707886;84;21134;-72
2021/05/24 11:03:25;;;;;;;2.80;1.95;;;;;;;17.01;58.05;99973.42;1707636;83;21086;-71
2021/05/24 11:06:15;;;;;;;3.47;1.98;;;;;;;17.09;57.02;99968.19;1708928;82;21086;-71
2021/05/24 11:09:07;;;;;;;3.22;1.90;;;;;;;17.16;56.60;99962.62;1656453;85;21113;-71
2021/05/24 11:11:37;;;;;;;5.53;1.90;;;;;;;17.28;55.81;99969.13;1692152;84;21087;-72
2021/05/24 11:14:09;;;;;;;3.62;1.98;;;;;;;17.29;56.40;99960.09;1711029;84;21106;-72
2021/05/24 11:16:37;;;;;;;2.40;1.80;;;;;;;17.32;55.88;99953.14;1706531;84;21031;-71
2021/05/24 11:19:11;;;;;;;4.33;1.95;;;;;;;17.30;55.16;99958.64;1711420;84;21083;-71
2021/05/24 11:21:41;;;;;;;2.80;1.87;;;;;;;17.29;55.47;99961.43;1710426;83;21035;-72
2021/05/24 11:24:35;;;;;;;4.10;2.17;;;;;;;17.26;55.48;99972.42;1710581;84;21579;-72
2021/05/24 11:27:11;;;;;;;2.90;1.92;;;;;;;17.27;54.99;99975.45;1707950;83;21062;-71
2021/05/24 11:29:39;;;;;;;2.47;1.98;;;;;;;17.27;55.48;99968.77;1705759;84;21580;-71
2021/05/24 11:32:24;;;;;;;4.45;1.85;;;;;;;17.27;56.40;99968.77;1670639;84;22050;-70
2021/05/24 11:34:52;;;;;;;2.80;2.00;;;;;;;17.32;55.85;99982.03;1710148;84;21575;-71
2021/05/24 11:37:20;;;;;;;2.83;1.77;;;;;;;17.35;54.42;99976.89;1711328;84;21659;-71
2021/05/24 11:39:52;;;;;;;3.10;1.90;;;;;;;17.38;54.93;99990.45;1677887;84;21019;-72
2021/05/24 11:42:23;;;;;;;2.55;1.70;;;;;;;17.36;54.09;99981.25;1705882;84;21576;-71